Time;durP1;ratioP1;P1;durP2;ratioP2;P2;SDS_P1;SDS_P2;PMS_P1;PMS_P2;Temp;Humidity;BMP_temperature;BMP_pressure;BME280_temperature;BME280_humidity;BME280_pressure;Samples;Min_cycle;Max_cycle;Signal;HPM_P1;HPM_P2
2021/12/01 00:04:39;;;;;;;11.48;1.27;;;;;;;;;;10341438;28;20216;-75
2021/12/01 00:09:40;;;;;;;5.47;1.33;;;;;;;;;;10341919;28;20294;-76
2021/12/01 00:14:41;;;;;;;4.38;1.30;;;;;;;;;;10336538;28;20208;-76
2021/12/01 00:19:42;;;;;;;6.15;1.38;;;;;;;;;;10338884;28;20298;-76
2021/12/01 00:24:43;;;;;;;6.78;1.23;;;;;;;;;;10324506;28;20223;-76
2021/12/01 00:29:44;;;;;;;8.35;1.10;;;;;;;;;;10323964;28;20184;-74
2021/12/01 00:34:46;;;;;;;2.92;1.27;;;;;;;;;;10321511;28;20239;-73
2021/12/01 00:39:47;;;;;;;6.30;2.35;;;;;;;;;;10325193;28;20267;-73
2021/12/01 00:44:55;;;;;;;6.57;1.73;;;;;;;;;;10342283;28;20218;-73
2021/12/01 00:49:56;;;;;;;7.63;1.40;;;;;;;;;;10353765;28;20305;-72
2021/12/01 00:54:57;;;;;;;7.28;0.90;;;;;;;;;;10344436;28;20310;-73
2021/12/01 00:59:58;;;;;;;4.72;1.42;;;;;;;;;;10331216;28;20524;-72
2021/12/01 01:04:59;;;;;;;7.78;0.90;;;;;;;;;;10349361;28;20315;-73
2021/12/01 01:10:06;;;;;;;7.85;1.08;;;;;;;;;;10330370;28;20195;-73
2021/12/01 01:20:27;;;;;;;1.92;0.70;;;;;;;;;;10348240;28;20219;-74
2021/12/01 01:25:29;;;;;;;9.10;1.27;;;;;;;;;;10350405;28;20219;-75
2021/12/01 01:30:30;;;;;;;7.88;1.05;;;;;;;;;;10343326;28;20559;-75
2021/12/01 01:35:31;;;;;;;6.13;1.05;;;;;;;;;;10332818;28;20223;-76
2021/12/01 01:40:32;;;;;;;5.55;0.63;;;;;;;;;;10328246;28;20187;-75
2021/12/01 01:45:34;;;;;;;2.83;0.80;;;;;;;;;;10342037;28;20251;-76
2021/12/01 01:50:37;;;;;;;2.42;0.65;;;;;;;;;;10330225;28;20168;-75
2021/12/01 01:55:43;;;;;;;5.15;0.80;;;;;;;;;;10343113;28;20189;-75
2021/12/01 02:01:06;;;;;;;3.03;0.70;;;;;;;;;;10344731;28;20271;-76
2021/12/01 02:06:07;;;;;;;0.63;0.55;;;;;;;;;;10345408;28;20204;-76
2021/12/01 02:11:10;;;;;;;4.43;0.90;;;;;;;;;;10346889;28;20185;-75
2021/12/01 02:16:12;;;;;;;2.17;0.57;;;;;;;;;;10334543;28;20223;-75
2021/12/01 02:21:13;;;;;;;3.25;1.00;;;;;;;;;;10349431;28;20208;-76
2021/12/01 02:26:16;;;;;;;2.88;0.70;;;;;;;;;;10325427;28;20875;-76
2021/12/01 02:31:17;;;;;;;5.80;1.23;;;;;;;;;;10343448;28;20228;-76
2021/12/01 02:36:18;;;;;;;4.38;1.17;;;;;;;;;;10327602;28;20279;-76
2021/12/01 02:41:26;;;;;;;6.00;1.10;;;;;;;;;;10327518;28;20212;-77
2021/12/01 02:46:27;;;;;;;3.10;1.40;;;;;;;;;;10332086;28;20243;-77
2021/12/01 02:51:31;;;;;;;5.90;1.50;;;;;;;;;;10336190;28;20196;-77
2021/12/01 02:56:32;;;;;;;4.35;1.75;;;;;;;;;;10331816;28;20207;-77
2021/12/01 03:01:34;;;;;;;4.15;2.35;;;;;;;;;;10346698;28;20234;-76
2021/12/01 03:06:36;;;;;;;3.97;2.95;;;;;;;;;;10350426;28;20196;-77
2021/12/01 03:11:37;;;;;;;4.78;3.40;;;;;;;;;;10348839;28;20191;-77
2021/12/01 03:16:38;;;;;;;4.55;2.90;;;;;;;;;;10340264;28;20219;-77
2021/12/01 03:21:40;;;;;;;4.60;2.85;;;;;;;;;;10346328;28;20204;-77
2021/12/01 03:26:41;;;;;;;4.43;2.55;;;;;;;;;;10327705;28;20212;-77
2021/12/01 03:31:43;;;;;;;3.17;2.47;;;;;;;;;;10330861;28;20243;-76
2021/12/01 03:36:44;;;;;;;4.25;2.30;;;;;;;;;;10326916;28;20207;-77
2021/12/01 03:41:45;;;;;;;12.65;11.63;;;;;;;;;;10326439;28;20731;-78
2021/12/01 03:46:46;;;;;;;4.15;3.78;;;;;;;;;;10350164;28;20224;-78
2021/12/01 03:51:47;;;;;;;11.18;6.15;;;;;;;;;;10344422;28;21066;-76
2021/12/01 03:56:48;;;;;;;8.75;7.00;;;;;;;;;;10345630;28;20204;-76
2021/12/01 04:01:49;;;;;;;8.43;6.47;;;;;;;;;;10335446;28;20227;-79
2021/12/01 04:06:50;;;;;;;7.60;6.40;;;;;;;;;;10329544;28;20279;-78
2021/12/01 04:11:51;;;;;;;10.82;7.22;;;;;;;;;;10342910;28;20184;-77
2021/12/01 04:16:52;;;;;;;11.43;7.95;;;;;;;;;;10342109;28;20741;-77
2021/12/01 04:21:53;;;;;;;17.30;9.02;;;;;;;;;;10330898;28;21307;-77
2021/12/01 04:26:54;;;;;;;14.95;9.45;;;;;;;;;;10355068;28;20882;-77
2021/12/01 04:31:55;;;;;;;16.65;9.38;;;;;;;;;;10359110;28;20200;-76
2021/12/01 04:36:57;;;;;;;15.32;9.35;;;;;;;;;;10335681;28;20200;-77
2021/12/01 04:42:04;;;;;;;17.45;9.77;;;;;;;;;;10344685;28;20595;-77
2021/12/01 04:47:12;;;;;;;18.00;9.13;;;;;;;;;;10326675;28;20744;-76
2021/12/01 04:52:13;;;;;;;64.32;58.92;;;;;;;;;;10326265;28;20267;-76
2021/12/01 04:57:16;;;;;;;11.60;6.82;;;;;;;;;;10340568;28;20253;-76
2021/12/01 05:02:17;;;;;;;7.22;6.30;;;;;;;;;;10344844;28;20228;-76
2021/12/01 05:07:18;;;;;;;7.07;4.85;;;;;;;;;;10304976;28;20207;-76
2021/12/01 05:12:19;;;;;;;3.13;2.92;;;;;;;;;;10336485;28;20192;-77
2021/12/01 05:17:20;;;;;;;2.00;1.90;;;;;;;;;;10316756;28;20304;-76
2021/12/01 05:22:22;;;;;;;2.22;1.85;;;;;;;;;;10320753;28;20219;-75
2021/12/01 05:27:23;;;;;;;2.25;1.90;;;;;;;;;;10339219;28;20314;-74
2021/12/01 05:32:24;;;;;;;1.45;1.35;;;;;;;;;;10347421;28;20228;-74
2021/12/01 05:37:26;;;;;;;1.33;1.17;;;;;;;;;;10327205;28;20215;-73
2021/12/01 05:42:27;;;;;;;1.13;0.80;;;;;;;;;;10339584;28;20581;-74
2021/12/01 05:47:52;;;;;;;0.50;0.50;;;;;;;;;;10341885;28;20986;-74
2021/12/01 05:52:53;;;;;;;0.40;0.40;;;;;;;;;;10317169;28;20197;-74
2021/12/01 05:57:54;;;;;;;0.85;0.35;;;;;;;;;;10346636;28;20172;-72
2021/12/01 06:02:55;;;;;;;0.40;0.40;;;;;;;;;;10322635;28;20234;-74
2021/12/01 06:07:56;;;;;;;0.40;0.40;;;;;;;;;;10323565;28;20354;-73
2021/12/01 06:12:58;;;;;;;0.43;0.38;;;;;;;;;;10326018;28;20794;-74
2021/12/01 06:17:59;;;;;;;0.30;0.30;;;;;;;;;;10322114;28;20212;-74
2021/12/01 06:23:00;;;;;;;0.30;0.30;;;;;;;;;;10313419;28;20503;-74
2021/12/01 06:28:01;;;;;;;1.25;0.30;;;;;;;;;;10312416;28;20191;-74
2021/12/01 06:33:03;;;;;;;0.32;0.32;;;;;;;;;;10318561;28;20215;-74
2021/12/01 06:38:04;;;;;;;0.32;0.32;;;;;;;;;;10333671;28;20738;-74
2021/12/01 06:43:05;;;;;;;0.30;0.30;;;;;;;;;;10339044;28;20617;-74
2021/12/01 06:48:07;;;;;;;0.40;0.40;;;;;;;;;;10339776;28;20219;-73
2021/12/01 06:53:08;;;;;;;0.30;0.30;;;;;;;;;;10344697;28;20204;-74
2021/12/01 06:58:09;;;;;;;0.40;0.40;;;;;;;;;;10337684;28;20192;-73
2021/12/01 07:03:10;;;;;;;0.40;0.40;;;;;;;;;;10319743;28;20666;-74
2021/12/01 07:08:11;;;;;;;0.20;0.20;;;;;;;;;;10338300;28;20179;-75
2021/12/01 07:13:12;;;;;;;3.05;0.20;;;;;;;;;;10312000;28;20786;-74
2021/12/01 07:18:13;;;;;;;0.57;0.30;;;;;;;;;;10323077;28;20212;-74
2021/12/01 07:23:14;;;;;;;0.20;0.20;;;;;;;;;;10329455;28;20204;-74
2021/12/01 07:28:15;;;;;;;0.30;0.30;;;;;;;;;;10315561;28;20259;-74
2021/12/01 07:33:16;;;;;;;0.38;0.38;;;;;;;;;;10336308;28;20223;-74
2021/12/01 07:38:17;;;;;;;0.40;0.40;;;;;;;;;;10317103;28;20287;-73
2021/12/01 07:43:18;;;;;;;1.55;0.60;;;;;;;;;;10328880;28;20216;-74
2021/12/01 07:48:19;;;;;;;0.60;0.60;;;;;;;;;;10329775;28;20227;-74
2021/12/01 07:53:20;;;;;;;0.50;0.50;;;;;;;;;;10299401;28;20207;-74
2021/12/01 07:58:22;;;;;;;0.50;0.50;;;;;;;;;;10336057;28;20179;-74
2021/12/01 08:03:23;;;;;;;0.40;0.40;;;;;;;;;;10334625;28;20230;-74
2021/12/01 08:08:24;;;;;;;0.40;0.40;;;;;;;;;;10315085;28;20176;-74
2021/12/01 08:13:25;;;;;;;0.22;0.20;;;;;;;;;;10319315;28;20268;-73
2021/12/01 08:18:26;;;;;;;0.50;0.40;;;;;;;;;;10350841;28;20312;-73
2021/12/01 08:23:27;;;;;;;0.20;0.20;;;;;;;;;;10339799;28;20218;-74
2021/12/01 08:28:28;;;;;;;0.30;0.30;;;;;;;;;;10321317;28;20715;-74
2021/12/01 08:33:29;;;;;;;0.28;0.28;;;;;;;;;;10318224;28;20311;-73
2021/12/01 08:38:30;;;;;;;0.20;0.20;;;;;;;;;;10321957;28;20189;-73
2021/12/01 08:43:31;;;;;;;0.20;0.20;;;;;;;;;;10313008;28;20208;-74
2021/12/01 08:48:32;;;;;;;0.22;0.22;;;;;;;;;;10316983;28;20771;-74
2021/12/01 08:53:35;;;;;;;0.30;0.30;;;;;;;;;;10318577;28;20204;-74
2021/12/01 08:58:45;;;;;;;0.55;0.30;;;;;;;;;;10319371;28;21059;-73
2021/12/01 09:03:51;;;;;;;0.17;0.17;;;;;;;;;;10317014;28;20507;-75
2021/12/01 09:08:52;;;;;;;0.20;0.20;;;;;;;;;;10321171;28;20172;-73
2021/12/01 09:13:54;;;;;;;0.90;0.22;;;;;;;;;;10318356;28;20230;-74
2021/12/01 09:18:55;;;;;;;1.38;0.40;;;;;;;;;;10315888;28;20220;-75
2021/12/01 09:23:56;;;;;;;0.52;0.50;;;;;;;;;;10330131;28;20265;-75
2021/12/01 09:28:57;;;;;;;0.40;0.40;;;;;;;;;;10317534;28;20829;-74
2021/12/01 09:33:58;;;;;;;0.30;0.30;;;;;;;;;;10322522;28;20291;-75
2021/12/01 09:38:59;;;;;;;0.30;0.30;;;;;;;;;;10327615;28;20196;-75
2021/12/01 09:44:00;;;;;;;1.45;0.40;;;;;;;;;;10341576;28;20211;-75
2021/12/01 09:49:01;;;;;;;0.30;0.30;;;;;;;;;;10312509;28;20212;-75
2021/12/01 09:54:02;;;;;;;0.50;0.50;;;;;;;;;;10343436;28;20196;-75
2021/12/01 09:59:03;;;;;;;0.30;0.30;;;;;;;;;;10326341;28;20303;-75
2021/12/01 10:04:04;;;;;;;0.30;0.30;;;;;;;;;;10333223;28;20649;-75
2021/12/01 10:09:07;;;;;;;0.25;0.25;;;;;;;;;;10323859;28;20269;-74
2021/12/01 10:14:19;;;;;;;0.35;0.35;;;;;;;;;;10336345;28;20294;-76
2021/12/01 10:19:20;;;;;;;0.30;0.30;;;;;;;;;;10332424;28;20219;-74
2021/12/01 10:24:24;;;;;;;0.63;0.30;;;;;;;;;;10338205;28;20220;-74
2021/12/01 10:29:29;;;;;;;0.30;0.30;;;;;;;;;;10323653;28;20315;-74
2021/12/01 10:34:32;;;;;;;0.30;0.30;;;;;;;;;;10335874;28;20220;-75
2021/12/01 10:39:33;;;;;;;0.30;0.30;;;;;;;;;;10342074;28;20764;-75
2021/12/01 10:44:35;;;;;;;1.20;0.25;;;;;;;;;;10318496;28;21258;-74
2021/12/01 10:49:40;;;;;;;0.30;0.30;;;;;;;;;;10321324;28;20219;-75
2021/12/01 10:54:41;;;;;;;0.45;0.43;;;;;;;;;;10339371;28;20219;-74
2021/12/01 10:59:46;;;;;;;0.45;0.45;;;;;;;;;;10321573;28;20179;-75
2021/12/01 11:04:48;;;;;;;0.35;0.30;;;;;;;;;;10317369;28;20227;-76
2021/12/01 11:10:08;;;;;;;1.20;0.30;;;;;;;;;;10320318;28;20796;-74
2021/12/01 11:15:20;;;;;;;0.30;0.30;;;;;;;;;;10320141;28;20303;-74
2021/12/01 11:20:34;;;;;;;0.40;0.40;;;;;;;;;;10335394;28;20271;-74
2021/12/01 11:25:36;;;;;;;0.43;0.43;;;;;;;;;;10336882;28;20298;-74
2021/12/01 11:30:39;;;;;;;0.28;0.28;;;;;;;;;;10322422;28;20304;-74
2021/12/01 11:35:42;;;;;;;0.50;0.50;;;;;;;;;;10322812;28;20219;-74
2021/12/01 11:40:43;;;;;;;0.88;0.40;;;;;;;;;;10339258;28;20644;-74
2021/12/01 11:45:45;;;;;;;0.35;0.30;;;;;;;;;;10322525;28;20287;-74
2021/12/01 11:51:06;;;;;;;0.30;0.30;;;;;;;;;;10340223;28;20343;-75
2021/12/01 11:56:07;;;;;;;0.40;0.40;;;;;;;;;;10336941;28;20216;-73
2021/12/01 12:01:20;;;;;;;0.57;0.30;;;;;;;;;;10322820;28;20208;-74
2021/12/01 12:06:26;;;;;;;0.40;0.40;;;;;;;;;;10345599;28;21048;-74
2021/12/01 12:11:33;;;;;;;0.85;0.50;;;;;;;;;;10331834;28;20212;-74
2021/12/01 12:16:35;;;;;;;0.28;0.28;;;;;;;;;;10322310;28;20278;-74
2021/12/01 12:21:46;;;;;;;0.30;0.30;;;;;;;;;;10340227;28;21451;-74
2021/12/01 12:26:53;;;;;;;0.55;0.20;;;;;;;;;;10340398;28;20213;-74
2021/12/01 12:32:14;;;;;;;0.30;0.30;;;;;;;;;;10315725;28;20212;-74
2021/12/01 12:37:25;;;;;;;0.40;0.40;;;;;;;;;;10324811;28;20296;-74
2021/12/01 12:42:28;;;;;;;2.20;0.30;;;;;;;;;;10341536;28;20208;-74
2021/12/01 12:47:44;;;;;;;0.30;0.30;;;;;;;;;;10338293;28;20618;-74
2021/12/01 12:52:47;;;;;;;0.20;0.20;;;;;;;;;;10326232;28;20191;-74
2021/12/01 12:57:59;;;;;;;0.40;0.40;;;;;;;;;;10350611;28;20192;-74
2021/12/01 13:03:21;;;;;;;1.75;0.20;;;;;;;;;;10324441;28;20208;-74
2021/12/01 13:08:30;;;;;;;0.20;0.20;;;;;;;;;;10339662;28;20681;-74
2021/12/01 13:13:39;;;;;;;0.30;0.30;;;;;;;;;;10329062;28;20215;-74
2021/12/01 13:18:41;;;;;;;0.20;0.20;;;;;;;;;;10341571;28;20225;-74
2021/12/01 13:23:49;;;;;;;0.32;0.32;;;;;;;;;;10324513;28;20285;-74
2021/12/01 13:28:52;;;;;;;0.20;0.20;;;;;;;;;;10330829;28;20180;-74
2021/12/01 13:33:58;;;;;;;0.20;0.20;;;;;;;;;;10338762;28;20273;-74
2021/12/01 13:39:03;;;;;;;0.20;0.20;;;;;;;;;;10330186;28;20188;-74
2021/12/01 13:44:05;;;;;;;0.20;0.20;;;;;;;;;;10324247;28;20291;-73
2021/12/01 13:49:07;;;;;;;0.17;0.17;;;;;;;;;;10318489;28;20216;-74
2021/12/01 13:54:12;;;;;;;0.17;0.17;;;;;;;;;;10327499;28;20204;-74
2021/12/01 13:59:13;;;;;;;0.50;0.50;;;;;;;;;;10349486;28;20932;-74
2021/12/01 14:04:14;;;;;;;0.30;0.30;;;;;;;;;;10333307;28;20223;-74
2021/12/01 14:09:22;;;;;;;0.30;0.30;;;;;;;;;;10342243;28;20283;-74
2021/12/01 14:14:24;;;;;;;0.30;0.30;;;;;;;;;;10329835;28;20299;-74
2021/12/01 14:19:29;;;;;;;0.20;0.20;;;;;;;;;;10299029;28;20212;-74
2021/12/01 14:24:33;;;;;;;0.20;0.20;;;;;;;;;;10336551;28;20635;-74
2021/12/01 14:29:37;;;;;;;0.70;0.20;;;;;;;;;;10325746;28;20270;-74
2021/12/01 14:34:39;;;;;;;0.40;0.40;;;;;;;;;;10325824;28;20212;-74
2021/12/01 14:39:41;;;;;;;0.20;0.20;;;;;;;;;;10337896;28;20242;-75
2021/12/01 14:44:44;;;;;;;0.20;0.20;;;;;;;;;;10313919;28;20211;-74
2021/12/01 14:49:53;;;;;;;0.30;0.30;;;;;;;;;;10334035;28;20259;-74
2021/12/01 14:54:57;;;;;;;0.20;0.20;;;;;;;;;;10332923;28;20770;-74
2021/12/01 14:59:59;;;;;;;0.20;0.20;;;;;;;;;;10341948;28;20196;-74
2021/12/01 15:05:07;;;;;;;0.30;0.30;;;;;;;;;;10323982;28;20220;-74
2021/12/01 15:10:12;;;;;;;0.30;0.30;;;;;;;;;;10329581;28;20212;-74
2021/12/01 15:15:32;;;;;;;0.47;0.47;;;;;;;;;;10338030;28;20231;-74
2021/12/01 15:20:34;;;;;;;0.15;0.15;;;;;;;;;;10324404;28;20259;-74
2021/12/01 15:25:37;;;;;;;0.25;0.25;;;;;;;;;;10335404;28;20216;-74
2021/12/01 15:30:39;;;;;;;0.70;0.70;;;;;;;;;;10321832;28;20315;-74
2021/12/01 15:35:41;;;;;;;0.38;0.38;;;;;;;;;;10339343;28;20219;-74
2021/12/01 15:40:42;;;;;;;0.45;0.20;;;;;;;;;;10340817;28;20614;-74
2021/12/01 15:45:43;;;;;;;0.10;0.10;;;;;;;;;;10339874;28;20212;-74
2021/12/01 15:50:44;;;;;;;0.10;0.10;;;;;;;;;;10324687;28;20222;-74
2021/12/01 15:55:46;;;;;;;0.10;0.10;;;;;;;;;;10332471;28;20199;-74
2021/12/01 16:00:48;;;;;;;0.10;0.10;;;;;;;;;;10341914;28;20719;-73
2021/12/01 16:05:50;;;;;;;0.20;0.20;;;;;;;;;;10329164;28;20627;-74
2021/12/01 16:10:55;;;;;;;0.20;0.20;;;;;;;;;;10321483;28;20936;-74
2021/12/01 16:15:56;;;;;;;0.28;0.20;;;;;;;;;;10303615;28;20299;-74
2021/12/01 16:20:57;;;;;;;0.20;0.20;;;;;;;;;;10331089;28;20182;-73
2021/12/01 16:25:59;;;;;;;0.20;0.20;;;;;;;;;;10337532;28;20208;-73
2021/12/01 16:31:00;;;;;;;0.10;0.10;;;;;;;;;;10316958;28;20282;-74
2021/12/01 16:36:01;;;;;;;0.20;0.20;;;;;;;;;;10322794;28;20224;-73
2021/12/01 16:41:05;;;;;;;0.30;0.20;;;;;;;;;;10333090;28;20188;-74
2021/12/01 16:46:07;;;;;;;0.40;0.40;;;;;;;;;;10297097;28;20244;-73
2021/12/01 16:51:08;;;;;;;2.85;2.75;;;;;;;;;;10319599;28;20643;-74
2021/12/01 16:56:09;;;;;;;0.80;0.80;;;;;;;;;;10339811;28;20204;-73
2021/12/01 17:01:10;;;;;;;0.77;0.77;;;;;;;;;;10324091;28;20219;-74
2021/12/01 17:06:15;;;;;;;0.73;0.73;;;;;;;;;;10318316;28;20208;-74
2021/12/01 17:11:17;;;;;;;0.75;0.75;;;;;;;;;;10335687;28;20196;-73
2021/12/01 17:16:18;;;;;;;1.95;0.73;;;;;;;;;;10329434;28;20215;-73
2021/12/01 17:21:20;;;;;;;0.70;0.70;;;;;;;;;;10335852;28;20180;-75
2021/12/01 17:26:21;;;;;;;0.73;0.73;;;;;;;;;;10327969;28;20223;-73
2021/12/01 17:31:36;;;;;;;0.88;0.60;;;;;;;;;;10347636;28;21002;-73
2021/12/01 17:36:37;;;;;;;0.90;0.90;;;;;;;;;;10344491;28;20227;-73
2021/12/01 17:41:38;;;;;;;3.60;1.77;;;;;;;;;;10342741;28;20302;-75
2021/12/01 17:46:40;;;;;;;1.65;1.38;;;;;;;;;;10342367;28;20212;-75
2021/12/01 17:51:41;;;;;;;0.70;0.70;;;;;;;;;;10327223;28;20176;-76
2021/12/01 17:56:42;;;;;;;0.95;0.93;;;;;;;;;;10340510;28;20196;-76
2021/12/01 18:01:43;;;;;;;0.90;0.90;;;;;;;;;;10341290;28;20230;-75
2021/12/01 18:06:47;;;;;;;7.30;5.45;;;;;;;;;;10323744;28;20922;-73
2021/12/01 18:11:49;;;;;;;4.40;1.85;;;;;;;;;;10323588;28;20296;-74
2021/12/01 18:16:50;;;;;;;1.33;1.33;;;;;;;;;;10322235;28;20219;-74
2021/12/01 18:21:51;;;;;;;2.15;1.25;;;;;;;;;;10337655;28;20270;-74
2021/12/01 18:26:53;;;;;;;1.42;1.42;;;;;;;;;;10326546;28;20211;-73
2021/12/01 18:31:54;;;;;;;3.03;1.80;;;;;;;;;;10320396;28;20208;-73
2021/12/01 18:36:55;;;;;;;1.23;1.23;;;;;;;;;;10338321;28;20200;-74
2021/12/01 18:41:58;;;;;;;1.60;1.58;;;;;;;;;;10338912;28;20212;-75
2021/12/01 18:46:59;;;;;;;1.83;1.50;;;;;;;;;;10340973;28;20240;-74
2021/12/01 18:52:00;;;;;;;1.73;1.73;;;;;;;;;;10338239;28;20195;-74
2021/12/01 18:57:01;;;;;;;1.30;1.30;;;;;;;;;;10331236;28;20262;-73
2021/12/01 19:02:03;;;;;;;1.13;1.13;;;;;;;;;;10319251;28;20387;-74
2021/12/01 19:07:04;;;;;;;1.90;1.80;;;;;;;;;;10334717;28;20206;-75
2021/12/01 19:12:06;;;;;;;1.70;1.60;;;;;;;;;;10339795;28;20180;-74
2021/12/01 19:17:07;;;;;;;1.67;1.58;;;;;;;;;;10326428;28;20220;-75
2021/12/01 19:22:08;;;;;;;1.40;1.00;;;;;;;;;;10320447;28;20222;-74
2021/12/01 19:27:09;;;;;;;1.05;0.70;;;;;;;;;;10337702;28;20215;-74
2021/12/01 19:32:10;;;;;;;1.80;1.17;;;;;;;;;;10314708;28;20749;-75
2021/12/01 19:37:11;;;;;;;1.25;1.05;;;;;;;;;;10319789;28;20204;-74
2021/12/01 19:42:15;;;;;;;1.17;0.80;;;;;;;;;;10321374;28;20290;-75
2021/12/01 19:47:17;;;;;;;1.20;0.68;;;;;;;;;;10321075;28;20220;-73
2021/12/01 19:52:25;;;;;;;0.95;0.65;;;;;;;;;;10339899;28;20188;-74
2021/12/01 19:57:32;;;;;;;0.30;0.30;;;;;;;;;;10350805;28;20311;-73
2021/12/01 20:02:33;;;;;;;2.63;0.77;;;;;;;;;;10345490;28;20222;-74
2021/12/01 20:07:36;;;;;;;0.40;0.40;;;;;;;;;;10332091;28;20253;-74
2021/12/01 20:12:37;;;;;;;2.15;0.30;;;;;;;;;;10320507;28;20245;-74
2021/12/01 20:17:38;;;;;;;4.32;0.43;;;;;;;;;;10334016;28;20212;-73
2021/12/01 20:22:45;;;;;;;1.23;0.40;;;;;;;;;;10340972;28;20801;-73
2021/12/01 20:27:47;;;;;;;1.48;0.60;;;;;;;;;;10320325;28;20645;-74
2021/12/01 20:32:50;;;;;;;2.58;0.50;;;;;;;;;;10320696;28;20215;-76
2021/12/01 20:37:51;;;;;;;2.53;0.40;;;;;;;;;;10336698;28;21584;-74
2021/12/01 20:42:54;;;;;;;3.63;0.43;;;;;;;;;;10335446;28;20291;-74
2021/12/01 20:48:12;;;;;;;3.78;0.50;;;;;;;;;;10334975;28;20211;-74
2021/12/01 20:58:17;;;;;;;4.78;0.43;;;;;;;;;;10321376;28;20181;-73
2021/12/01 21:03:20;;;;;;;2.28;0.50;;;;;;;;;;10323232;28;20226;-73
2021/12/01 21:08:24;;;;;;;3.03;0.70;;;;;;;;;;10321165;28;20182;-74
2021/12/01 21:13:29;;;;;;;0.52;0.50;;;;;;;;;;10324012;28;20205;-74
2021/12/01 21:18:30;;;;;;;3.40;0.75;;;;;;;;;;10315320;28;20216;-75
2021/12/01 21:23:31;;;;;;;2.92;1.00;;;;;;;;;;10322586;28;20219;-75
2021/12/01 21:28:34;;;;;;;0.93;0.40;;;;;;;;;;10342261;28;20191;-74
2021/12/01 21:33:35;;;;;;;2.78;0.63;;;;;;;;;;10337125;28;20363;-74
2021/12/01 21:38:37;;;;;;;1.38;0.47;;;;;;;;;;10337992;28;20277;-73
2021/12/01 21:43:38;;;;;;;5.40;0.55;;;;;;;;;;10332597;28;20208;-75
2021/12/01 21:48:39;;;;;;;1.17;0.45;;;;;;;;;;10322894;28;20240;-74
2021/12/01 21:53:42;;;;;;;0.70;0.30;;;;;;;;;;10311011;28;20673;-74
2021/12/01 21:58:45;;;;;;;4.97;0.43;;;;;;;;;;10330508;28;20761;-73
2021/12/01 22:03:47;;;;;;;5.25;0.50;;;;;;;;;;10333628;28;21124;-73
2021/12/01 22:08:48;;;;;;;1.00;0.30;;;;;;;;;;10317454;28;20199;-73
2021/12/01 22:13:49;;;;;;;0.57;0.30;;;;;;;;;;10310869;28;20239;-74
2021/12/01 22:18:51;;;;;;;1.55;0.60;;;;;;;;;;10335635;28;20223;-73
2021/12/01 22:23:59;;;;;;;0.60;0.60;;;;;;;;;;10335532;28;20305;-73
2021/12/01 22:29:00;;;;;;;1.55;0.38;;;;;;;;;;10323571;28;20184;-74
2021/12/01 22:34:02;;;;;;;4.30;0.50;;;;;;;;;;10317175;28;20225;-73
2021/12/01 22:39:04;;;;;;;1.17;0.52;;;;;;;;;;10337650;28;20566;-73
2021/12/01 22:44:06;;;;;;;1.60;0.30;;;;;;;;;;10333896;28;20246;-73
2021/12/01 22:49:07;;;;;;;0.73;0.40;;;;;;;;;;10315228;28;20212;-73
2021/12/01 22:54:08;;;;;;;2.33;0.40;;;;;;;;;;10330817;28;20783;-73
2021/12/01 22:59:12;;;;;;;1.85;0.50;;;;;;;;;;10316748;28;20195;-73
2021/12/01 23:04:13;;;;;;;2.85;0.40;;;;;;;;;;10336799;28;20223;-72
2021/12/01 23:09:16;;;;;;;2.63;0.65;;;;;;;;;;10320214;28;20430;-73
2021/12/01 23:14:17;;;;;;;0.80;0.47;;;;;;;;;;10299119;28;20954;-74
2021/12/01 23:19:19;;;;;;;2.42;0.68;;;;;;;;;;10330227;28;20220;-73
2021/12/01 23:29:41;;;;;;;3.92;0.68;;;;;;;;;;10339799;28;20377;-74
2021/12/01 23:34:42;;;;;;;4.80;0.60;;;;;;;;;;10316287;28;20259;-73
2021/12/01 23:39:44;;;;;;;2.75;0.40;;;;;;;;;;10323935;28;20191;-73
2021/12/01 23:44:48;;;;;;;0.85;0.40;;;;;;;;;;10331950;28;20295;-74
2021/12/01 23:55:08;;;;;;;2.10;0.38;;;;;;;;;;10342134;28;20307;-73
